Nearby METAR Reports

 

K1V6 - Canon City, Colorado, USA
Distance from station: NE 34mi, 55km
Updated: 04/12/2024 3:55am MDT
Clear
Clear
 Wind from WNW
Wind: WNW 10 mph , 17 km/h
Temperature: 37°F , 3°C
Wind Chill: 30°F , -1°C
Dew Point: 28°F , -2°C
Humidity: 70%
Barometer: 30.13 inHg , 1020.3 hPa
Clouds: Clear
Visibility: 10 miles , 16 km
2024/04/12 09:55 K1V6 120955Z AUTO 29009KT 10SM CLR 03/M02 A3013 RMK AO2
K04V - Saguache Muni, Colorado, USA
Distance from station: W 35mi, 56km
Updated: 04/12/2024 3:55am MDT
Clear
Clear
 Wind from NW
Wind: NW 15 mph , 24 km/h
Temperature: 32°F , 0°C
Wind Chill: 22°F , -6°C
Dew Point: 12°F , -11°C
Humidity: 44%
Barometer: 30.25 inHg , 1024.4 hPa
Clouds: Clear
Visibility: 10 miles , 16 km
2024/04/12 09:55 K04V 120955Z AUTO 32013KT 10SM CLR 00/M11 A3025 RMK AO2
 
KANK - Salida, Colorado, USA
Distance from station: NW 43mi, 69km
Updated: 04/12/2024 3:55am MDT
Clear
Clear
 Wind from varies
Wind: varies 5 mph , 7 km/h
Temperature: 32°F , 0°C
Wind Chill: 27°F , -3°C
Dew Point: 16°F , -9°C
Humidity: 51%
Barometer: 30.22 inHg , 1023.4 hPa
Clouds: Clear
Visibility: 10 miles , 16 km
2024/04/12 09:55 KANK 120955Z AUTO VRB04KT 10SM CLR M00/M09 A3022 RMK AO2 T10031092
KVTP - La Veta Pass, Colorado, USA
Distance from station: SSE 44mi, 71km
Updated: 04/12/2024 3:55am MDT
Clear
Clear
 Wind from W
Wind: W 14 mph , 22 km/h, Gust: 21 mph , 33 km/h
Temperature: 34°F , 1°C
Wind Chill: 25°F , -4°C
Dew Point: 9°F , -13°C
Humidity: 35%
Barometer: 30.37 inHg , 1028.4 hPa
Clouds: Clear
Visibility: 10 miles , 16 km
2024/04/12 09:55 KVTP 120955Z AUTO 26012G18KT 10SM CLR 01/M13 A3037 RMK AO2
 
KALS - Alamosa, Colorado, USA
Distance from station: SSW 48mi, 77km
Updated: 04/12/2024 3:52am MDT
Clear
Clear
 Wind from SSW
Wind: SSW 9 mph , 15 km/h
Temperature: 27°F , -3°C
Wind Chill: 18°F , -8°C
Dew Point: 12°F , -11°C
Humidity: 54%
Barometer: 30.23 inHg , 1023.7 hPa
Clouds: Clear
Visibility: 10 miles , 16 km
2024/04/12 09:52 KALS 120952Z AUTO 21008KT 10SM CLR M03/M11 A3023 RMK AO2 SLP198 T10331111